Dover, DE

12:55 PM EDT on October 23, 2014 (GMT -0400)
Fifer Orchards | Change Station
CLOSE
Current Station
Personal Weather Station
Location: Delaware, DE
Elevation: 46 ft
Nearby Weather Stations

Elev 46 ft 39.12 °N, 75.57 °W | Updated 8 minutes ago

Overcast
Overcast
55.2 °F
Feels Like 55.2 °F
N
10.0
Wind Variable Wind from WNW
Gusts 21.0 mph

Today
High -- | Low -- °F
--% Chance of Precip.
Yesterday
High -- | Low -- °F
Precip. -- in
7:19 AM 6:12 PM
Waning Crescent, 0% visible
Pressure 29.78 in
Visibility 10.0 miles
Clouds Few 1300 ft
Overcast 3200 ft
Dew Point 50 °F
Humidity 84%
Rainfall 0.00 in
Snow Depth Not available.
UV 2 out of 12
Pollen .60 out of 12
Air Quality Not available.
Flu Activity Sporadic
SPECI KDOV 231645Z AUTO 30015G21KT 10SM FEW013 OVC032 12/10 A2978 RMK AO2

More Conditions Fewer Conditions

Pressure 29.78 in
Visibility 10.0 miles
Clouds Few 1300 ft
Overcast 3200 ft
Dew Point 50 °F
Humidity 84%
Rainfall 0.00 in
Snow Depth Not available.
UV 2 out of 12
Pollen .60 out of 12
Air Quality Not available.
Flu Activity Sporadic
SPECI KDOV 231645Z AUTO 30015G21KT 10SM FEW013 OVC032 12/10 A2978 RMK AO2

More Conditions Fewer Conditions

10-Day Weather Forecast

Almanac

Astronomy

Oct. 23, 2014 Rise Set
Actual Time 7:19 AM EDT 6:12 PM EDT
Civil Twilight 6:52 AM EDT 6:39 PM EDT
Nautical Twilight 6:21 AM EDT 7:10 PM EDT
Astronomical Twilight 5:50 AM EDT 7:41 PM EDT
Moon 6:57 AM EDT 6:12 PM EDT
Length of Visible Light 11h 46m
Length of Day
10h 52m
Tomorrow will be 2m 23s shorter.
Waning Crescent, 0% of the Moon is Illuminated
Today
Waning Crescent
Oct 23
New
Oct 30
First Quarter
Nov 6
Full
Nov 14
Last Quarter

Today's Extremes

State Highs State Lows

Community

WunderPhotos

Upload Photos

1,764,308 photos uploaded!

WunderBlogs® & News

Nearby

Snow Depth

Station Depth Elevation
No new snow has been reported.

Earthquake Activity

City Distance Mag. Time & Date
No recent earthquake activity has been reported nearby.
Minimum magnitude displayed is 2.5.

Coastal Water Temperatures

Place Temperature
Cape May, NJ 64.0 °F
Reedy Point, DE 62.1 °F
Delaware City, DE 62.1 °F
Marcus Hook, PA 63.0 °F

Nearby Weather Stations